Terminal Aerodrome Forecast
Issued by NWS

Home | Current Version | Previous Version | Text Only | Print | Product List | Glossary Off
Versions: 1 2 3 4 5 6 7 8 9 10 11 12 13 14 15 16 17 18

873
FTUS42 KMHX 211922 AAA
TAFOAJ
TAF AMD
KOAJ 211922Z 2119/2218 24005KT P6SM BKN250
     FM220000 24005KT P6SM BKN045
      AMD LTD TO CLD VIS AND WIND=

USA.gov is the U.S. government's official web portal to all federal, state and local government web resources and services.